CYUY

Rouyn-Noranda Airport

Rouyn-Noranda, , Canada
METAR CYUY 260300Z 22023G35KT 15SM -SN SCT033 OVC062 M01/M07 A2953 RMK SC4SC4 SLP018
Observed Flight Rules
Feb-26 @ 03:00 UTC (19 minutes ago) Visual Flight Rules
Wind Visibility Clouds Conditions
220° at 23 knots
 Gusting to 35 knots
15 miles
  • Scattered at 3,300' AGL
  • Overcast at 6,200' AGL
  • Light Snow
Temperatures Readings
Current -1°C / 30°F
Dewpoint -7°C / 19°F
Humidity 64%
Altimeter 29.53" Hg
Pressure 1001.8 hPa
Elevation 301
METAR CYUY 260300Z 22023G35KT 15SM -SN SCT033 OVC062 M01/M07 A2953 RMK SC4SC4 SLP018
Observed Flight Rules
Feb-26 @ 03:00 UTC
(19 minutes ago)
VFR
Wind Visibility
220° at 23 knots
 Gusting to 35 knots
15 miles
Clouds
  • Scattered at 3,300' AGL
  • Overcast at 6,200' AGL
Conditions
  • Light Snow
Temperature Dewpoint
-1°C / 30°F -7°C / 19°F
Humidity Altimeter Pressure
64% 29.53" Hg 1001.8 hPa